createdAt,value
2022-08-03T00:01:49.422Z,23.47
2022-08-03T00:03:52.322Z,23.45
2022-08-03T00:06:04.542Z,23.40
2022-08-03T00:08:07.948Z,23.33
2022-08-03T00:10:12.206Z,23.31
2022-08-03T00:12:15.358Z,23.28
2022-08-03T00:14:18.271Z,23.23
2022-08-03T00:16:22.436Z,23.23
2022-08-03T00:18:26.265Z,23.23
2022-08-03T00:20:29.166Z,23.26
2022-08-03T00:22:32.032Z,23.22
2022-08-03T00:24:36.187Z,23.18
2022-08-03T00:26:39.054Z,23.12
2022-08-03T00:28:42.061Z,23.04
2022-08-03T00:30:44.961Z,23.01
2022-08-03T00:32:49.190Z,22.98
2022-08-03T00:34:57.927Z,22.97
2022-08-03T00:37:01.976Z,22.94
2022-08-03T00:39:05.140Z,22.97
2022-08-03T00:41:07.957Z,23.00
2022-08-03T00:43:11.507Z,23.06
2022-08-03T00:45:14.374Z,23.02
2022-08-03T00:47:17.301Z,23.04
2022-08-03T00:49:21.602Z,23.02
2022-08-03T00:51:25.025Z,22.87
2022-08-03T00:53:28.547Z,22.86
2022-08-03T00:55:31.785Z,22.87
2022-08-03T00:57:35.621Z,22.88
2022-08-03T00:59:39.585Z,22.89
2022-08-03T01:01:42.493Z,22.88
2022-08-03T01:03:45.408Z,22.86
2022-08-03T01:05:56.914Z,22.83
2022-08-03T01:08:06.521Z,22.82
2022-08-03T01:10:18.280Z,22.86
2022-08-03T01:12:27.221Z,22.84
2022-08-03T01:14:39.415Z,22.84
2022-08-03T01:16:49.225Z,22.81
2022-08-03T01:18:59.363Z,22.79
2022-08-03T01:21:08.613Z,22.80
2022-08-03T01:23:47.112Z,22.78
2022-08-03T01:26:06.954Z,22.71
2022-08-03T01:28:29.961Z,22.71
2022-08-03T01:30:37.885Z,22.70
2022-08-03T01:32:58.850Z,22.72
2022-08-03T01:35:07.429Z,22.67
2022-08-03T01:37:13.937Z,22.71
2022-08-03T01:39:18.162Z,22.70
2022-08-03T01:41:22.124Z,22.54
2022-08-03T01:44:27.143Z,22.61
2022-08-03T01:45:55.412Z,22.64
2022-08-03T01:47:59.925Z,22.68
2022-08-03T01:50:04.706Z,22.71
2022-08-03T01:52:08.807Z,22.71
2022-08-03T01:54:14.525Z,22.72
2022-08-03T01:56:20.114Z,22.72
2022-08-03T01:58:26.039Z,22.74
2022-08-03T02:00:29.272Z,22.73
2022-08-03T02:02:34.927Z,22.71
2022-08-03T02:04:40.093Z,22.67
2022-08-03T02:07:01.178Z,22.62
2022-08-03T02:09:07.449Z,22.56
2022-08-03T02:11:10.150Z,22.38
2022-08-03T02:13:15.050Z,22.42
2022-08-03T02:15:19.745Z,22.48
2022-08-03T02:17:39.410Z,22.49
2022-08-03T02:19:46.261Z,22.51
2022-08-03T02:21:57.156Z,22.48
2022-08-03T02:24:05.275Z,22.50
2022-08-03T02:26:12.787Z,22.51
2022-08-03T02:28:19.250Z,22.48
2022-08-03T02:30:23.554Z,22.45
2022-08-03T02:32:31.621Z,22.47
2022-08-03T02:34:36.865Z,22.45
2022-08-03T02:36:43.495Z,22.43
2022-08-03T02:38:50.772Z,22.38
2022-08-03T02:40:56.864Z,22.30
2022-08-03T02:43:03.458Z,22.29
2022-08-03T02:45:09.311Z,22.27
2022-08-03T02:47:15.505Z,22.24
2022-08-03T02:49:40.729Z,22.21
2022-08-03T02:51:45.915Z,22.21
2022-08-03T02:53:49.690Z,22.18
2022-08-03T02:55:54.689Z,22.16
2022-08-03T02:58:01.482Z,22.13
2022-08-03T03:00:06.760Z,22.12
2022-08-03T03:02:10.959Z,22.03
2022-08-03T03:04:15.044Z,22.00
2022-08-03T03:06:18.965Z,21.97
2022-08-03T03:08:25.973Z,21.83
2022-08-03T03:10:30.508Z,21.88
2022-08-03T03:12:36.851Z,21.91
2022-08-03T03:14:40.742Z,21.89
2022-08-03T03:16:45.504Z,21.90
2022-08-03T03:18:55.877Z,21.90
2022-08-03T03:21:00.169Z,21.89
2022-08-03T03:23:04.539Z,21.83
2022-08-03T03:25:09.170Z,21.66
2022-08-03T03:27:16.697Z,21.71
2022-08-03T03:29:20.061Z,21.72
2022-08-03T03:31:23.533Z,21.69
2022-08-03T03:33:28.410Z,21.65
2022-08-03T03:35:38.922Z,21.61
2022-08-03T03:37:42.317Z,21.55
2022-08-03T03:39:45.223Z,21.58
2022-08-03T03:41:50.084Z,21.60
2022-08-03T03:43:53.011Z,21.61
2022-08-03T03:45:56.590Z,21.58
2022-08-03T03:48:00.961Z,21.56
2022-08-03T03:50:04.190Z,21.57
2022-08-03T03:52:07.623Z,21.59
2022-08-03T03:54:10.477Z,21.57
2022-08-03T03:56:13.298Z,21.58
2022-08-03T03:58:17.475Z,21.59
2022-08-03T04:00:20.773Z,21.57
2022-08-03T04:02:23.764Z,21.56
2022-08-03T04:04:44.277Z,21.61
2022-08-03T04:07:05.027Z,21.58
2022-08-03T04:09:28.209Z,21.55
2022-08-03T04:11:37.537Z,21.56
2022-08-03T04:13:45.144Z,21.55
2022-08-03T04:15:49.765Z,21.55
2022-08-03T04:17:56.971Z,21.56
2022-08-03T04:20:04.047Z,21.55
2022-08-03T04:22:10.817Z,21.55
2022-08-03T04:24:16.033Z,21.54
2022-08-03T04:26:22.496Z,21.51
2022-08-03T04:28:31.276Z,21.45
2022-08-03T04:30:38.661Z,21.44
2022-08-03T04:32:45.968Z,21.44
2022-08-03T04:34:49.343Z,21.45
2022-08-03T04:36:58.182Z,21.45
2022-08-03T04:39:04.583Z,21.50
2022-08-03T04:41:09.024Z,21.53
2022-08-03T04:43:13.780Z,21.42
2022-08-03T04:45:20.219Z,21.53
2022-08-03T04:47:24.803Z,21.60
2022-08-03T04:49:28.920Z,21.67
2022-08-03T04:51:34.713Z,21.67
2022-08-03T04:53:38.349Z,21.70
2022-08-03T04:55:41.194Z,21.67
2022-08-03T04:57:43.970Z,21.68
2022-08-03T04:59:49.147Z,21.69
2022-08-03T05:01:52.236Z,21.69
2022-08-03T05:03:56.476Z,21.64
2022-08-03T05:06:01.619Z,21.64
2022-08-03T05:08:05.148Z,21.69
2022-08-03T05:10:16.069Z,21.75
2022-08-03T05:12:19.587Z,21.79
2022-08-03T05:14:28.198Z,21.82
2022-08-03T05:16:31.258Z,21.85
2022-08-03T05:18:34.221Z,21.88
2022-08-03T05:20:38.427Z,21.93
2022-08-03T05:22:41.302Z,21.94
2022-08-03T05:24:44.133Z,21.99
2022-08-03T05:26:46.960Z,22.03
2022-08-03T05:28:50.631Z,22.08
2022-08-03T05:30:54.072Z,22.15
2022-08-03T05:32:56.881Z,22.20
2022-08-03T05:34:59.717Z,22.23
2022-08-03T05:37:23.872Z,22.28
2022-08-03T05:39:26.724Z,22.31
2022-08-03T05:41:37.008Z,22.36
2022-08-03T05:43:40.461Z,22.40
2022-08-03T05:45:43.294Z,22.45
2022-08-03T05:47:46.159Z,22.48
2022-08-03T05:49:49.082Z,22.65
2022-08-03T05:52:00.324Z,22.92
2022-08-03T05:54:16.918Z,23.15
2022-08-03T05:56:23.431Z,23.29
2022-08-03T05:58:26.338Z,23.42
2022-08-03T06:00:32.877Z,23.53
2022-08-03T06:02:36.099Z,23.59
2022-08-03T06:04:39.001Z,23.63
2022-08-03T06:06:42.103Z,23.66
2022-08-03T06:08:48.670Z,23.73
2022-08-03T06:10:52.891Z,23.77
2022-08-03T06:12:55.712Z,23.82
2022-08-03T06:14:58.681Z,23.87
2022-08-03T06:17:01.518Z,23.95
2022-08-03T06:19:04.424Z,24.02
2022-08-03T06:21:14.266Z,24.11
2022-08-03T06:23:19.401Z,24.18
2022-08-03T06:25:22.868Z,24.25
2022-08-03T06:27:36.446Z,24.30
2022-08-03T06:29:40.297Z,24.32
2022-08-03T06:31:43.095Z,24.38
2022-08-03T06:34:30.626Z,24.44
2022-08-03T06:36:09.011Z,24.45
2022-08-03T06:38:14.944Z,24.45
2022-08-03T06:40:24.436Z,24.54
2022-08-03T06:42:28.848Z,24.55
2022-08-03T06:44:31.668Z,24.60
2022-08-03T06:46:34.559Z,24.69
2022-08-03T06:48:37.437Z,24.77
2022-08-03T06:50:42.649Z,24.81
2022-08-03T06:52:45.648Z,24.87
2022-08-03T06:54:48.561Z,24.79
2022-08-03T06:56:51.507Z,24.87
2022-08-03T06:58:55.671Z,24.95
2022-08-03T07:00:58.566Z,25.01
2022-08-03T07:03:01.472Z,25.12
2022-08-03T07:05:04.630Z,25.16
2022-08-03T07:07:07.573Z,25.23
2022-08-03T07:09:10.437Z,25.30
2022-08-03T07:11:13.295Z,25.40
2022-08-03T07:13:16.177Z,25.48
2022-08-03T07:15:55.391Z,25.60
2022-08-03T07:17:43.290Z,25.52
2022-08-03T07:19:46.194Z,25.47
2022-08-03T07:21:49.046Z,25.51
2022-08-03T07:23:51.863Z,25.60
2022-08-03T07:25:54.745Z,25.64
2022-08-03T07:27:57.587Z,25.69
2022-08-03T07:30:01.170Z,25.64
2022-08-03T07:32:05.985Z,25.78
2022-08-03T07:34:08.972Z,25.85
2022-08-03T07:36:11.809Z,25.79
2022-08-03T07:38:14.729Z,25.74
2022-08-03T07:40:17.973Z,25.75
2022-08-03T07:42:20.829Z,25.78
2022-08-03T07:44:23.726Z,25.77
2022-08-03T07:46:26.799Z,25.82
2022-08-03T07:48:31.088Z,25.88
2022-08-03T07:50:33.759Z,25.88
2022-08-03T07:52:52.801Z,26.00
2022-08-03T07:54:56.080Z,26.03
2022-08-03T07:56:59.050Z,26.09
2022-08-03T07:59:02.892Z,26.09
2022-08-03T08:01:05.792Z,26.16
2022-08-03T08:03:08.816Z,26.28
2022-08-03T08:05:13.711Z,26.39
2022-08-03T08:07:16.606Z,26.52
2022-08-03T08:09:21.257Z,26.64
2022-08-03T08:11:24.076Z,26.59
2022-08-03T08:13:27.138Z,26.64
2022-08-03T08:15:30.178Z,26.65
2022-08-03T08:17:41.699Z,26.71
2022-08-03T08:19:51.761Z,26.79
2022-08-03T08:22:02.572Z,26.87
2022-08-03T08:24:56.931Z,26.95
2022-08-03T08:26:59.894Z,26.99
2022-08-03T08:29:02.735Z,27.09
2022-08-03T08:31:05.782Z,27.20
2022-08-03T08:33:12.851Z,27.26
2022-08-03T08:35:26.931Z,27.34
2022-08-03T08:37:31.183Z,27.40
2022-08-03T08:39:33.866Z,27.34
2022-08-03T08:41:36.836Z,27.38
2022-08-03T08:43:39.724Z,27.50
2022-08-03T08:45:43.380Z,27.60
2022-08-03T08:47:51.230Z,27.64
2022-08-03T08:50:09.292Z,27.67
2022-08-03T08:52:25.106Z,27.68
2022-08-03T08:54:34.270Z,27.74
2022-08-03T08:56:38.517Z,27.81
2022-08-03T08:58:43.152Z,27.78
2022-08-03T09:00:48.299Z,27.90
2022-08-03T09:02:51.491Z,28.04
2022-08-03T09:04:54.452Z,28.12
2022-08-03T09:07:18.877Z,28.12
2022-08-03T09:10:05.917Z,28.21
2022-08-03T09:11:57.744Z,28.36
2022-08-03T09:14:08.246Z,28.42
2022-08-03T09:16:16.634Z,28.52
2022-08-03T09:18:32.591Z,28.67
2022-08-03T09:20:36.855Z,28.69
2022-08-03T09:22:54.168Z,28.99
2022-08-03T09:25:21.511Z,29.09
2022-08-03T09:27:23.744Z,29.08
2022-08-03T09:29:26.748Z,29.01
2022-08-03T09:31:34.575Z,29.05
2022-08-03T09:33:48.410Z,29.15
2022-08-03T09:35:54.130Z,29.17
2022-08-03T09:38:14.616Z,29.27
2022-08-03T09:40:36.167Z,29.50
2022-08-03T09:42:57.544Z,29.43
2022-08-03T09:45:00.490Z,29.40
2022-08-03T09:47:03.325Z,29.51
2022-08-03T09:49:12.990Z,29.75
2022-08-03T09:51:32.925Z,29.89
2022-08-03T09:53:58.703Z,29.80
2022-08-03T09:56:36.163Z,29.78
2022-08-03T09:58:29.843Z,29.75
2022-08-03T10:00:32.782Z,29.91
2022-08-03T10:02:35.667Z,29.96
2022-08-03T10:04:48.264Z,30.02
2022-08-03T10:07:05.787Z,30.25
2022-08-03T10:09:11.003Z,30.27
2022-08-03T10:11:13.854Z,30.27
2022-08-03T10:13:18.362Z,30.47
2022-08-03T10:16:22.134Z,30.51
2022-08-03T10:17:45.759Z,30.57
2022-08-03T10:19:49.404Z,30.61
2022-08-03T10:21:56.697Z,30.77
2022-08-03T10:24:02.895Z,30.85
2022-08-03T10:26:08.739Z,31.00
2022-08-03T10:28:15.982Z,31.12
2022-08-03T10:30:19.027Z,31.18
2022-08-03T10:32:35.193Z,31.23
2022-08-03T10:34:44.612Z,31.25
2022-08-03T10:36:50.005Z,31.14
2022-08-03T10:38:54.223Z,31.12
2022-08-03T10:40:59.193Z,30.99
2022-08-03T10:43:09.000Z,30.93
2022-08-03T10:45:16.402Z,31.14
2022-08-03T10:47:19.853Z,31.16
2022-08-03T10:49:34.453Z,31.23
2022-08-03T10:51:38.951Z,31.39
2022-08-03T10:53:54.185Z,31.54
2022-08-03T10:56:18.184Z,31.70
2022-08-03T10:58:57.158Z,31.78
2022-08-03T11:01:00.942Z,31.66
2022-08-03T11:03:09.539Z,31.67
2022-08-03T11:05:29.614Z,31.64
2022-08-03T11:07:32.458Z,31.72
2022-08-03T11:09:42.778Z,31.61
2022-08-03T11:11:47.567Z,31.61
2022-08-03T11:13:58.889Z,31.71
2022-08-03T11:16:07.089Z,31.75
2022-08-03T11:18:12.575Z,31.76
2022-08-03T11:20:15.662Z,31.87
2022-08-03T11:22:21.206Z,32.09
2022-08-03T11:24:58.374Z,32.09
2022-08-03T11:27:19.492Z,32.11
2022-08-03T11:29:29.780Z,32.30
2022-08-03T11:31:50.291Z,32.38
2022-08-03T11:34:05.547Z,32.41
2022-08-03T11:36:08.232Z,32.57
2022-08-03T11:38:15.296Z,32.31
2022-08-03T11:40:37.524Z,32.19
2022-08-03T11:42:50.519Z,32.19
2022-08-03T11:44:55.066Z,32.26
2022-08-03T11:46:58.943Z,32.41
2022-08-03T11:49:10.375Z,32.57
2022-08-03T11:51:22.168Z,32.69
2022-08-03T11:53:26.433Z,32.80
2022-08-03T11:55:32.098Z,32.64
2022-08-03T11:59:19.543Z,32.78
2022-08-03T11:59:59.759Z,32.70
2022-08-03T12:02:08.018Z,32.67
2022-08-03T12:04:11.678Z,32.74
2022-08-03T12:06:16.788Z,32.95
2022-08-03T12:08:31.206Z,33.08
2022-08-03T12:10:37.019Z,32.85
2022-08-03T12:12:46.656Z,32.81
2022-08-03T12:14:52.533Z,32.95
2022-08-03T12:16:55.556Z,33.13
2022-08-03T12:18:59.687Z,33.11
2022-08-03T12:21:08.087Z,33.11
2022-08-03T12:23:11.455Z,33.03
2022-08-03T12:25:39.096Z,33.08
2022-08-03T12:27:43.885Z,33.17
2022-08-03T12:29:57.222Z,33.32
2022-08-03T12:32:01.748Z,33.40
2022-08-03T12:34:07.064Z,33.49
2022-08-03T12:36:11.973Z,33.34
2022-08-03T12:38:15.012Z,33.39
2022-08-03T12:40:28.362Z,33.39
2022-08-03T12:42:31.532Z,33.59
2022-08-03T12:44:37.137Z,33.60
2022-08-03T12:46:46.959Z,33.54
2022-08-03T12:49:01.302Z,33.39
2022-08-03T12:51:12.919Z,33.52
2022-08-03T12:53:29.893Z,33.58
2022-08-03T12:55:40.104Z,33.63
2022-08-03T12:57:59.560Z,33.61
2022-08-03T13:00:21.500Z,33.56
2022-08-03T13:02:32.224Z,33.58
2022-08-03T13:04:37.097Z,33.67
2022-08-03T13:06:40.020Z,33.79
2022-08-03T13:08:44.249Z,34.01
2022-08-03T13:10:47.199Z,34.06
2022-08-03T13:12:51.335Z,33.81
2022-08-03T13:14:57.057Z,33.82
2022-08-03T13:17:01.412Z,33.83
2022-08-03T13:19:04.410Z,33.92
2022-08-03T13:21:07.404Z,34.04
2022-08-03T13:23:12.940Z,33.95
2022-08-03T13:25:25.303Z,33.96
2022-08-03T13:28:12.372Z,33.98
2022-08-03T13:29:52.868Z,34.21
2022-08-03T13:31:55.718Z,34.14
2022-08-03T13:33:59.948Z,34.14
2022-08-03T13:36:02.787Z,34.23
2022-08-03T13:38:05.723Z,34.20
2022-08-03T13:40:11.576Z,34.37
2022-08-03T13:42:14.742Z,34.30
2022-08-03T13:44:29.191Z,34.25
2022-08-03T13:46:32.728Z,34.36
2022-08-03T13:48:37.070Z,34.48
2022-08-03T13:50:43.166Z,34.32
2022-08-03T13:52:46.335Z,34.43
2022-08-03T13:54:49.174Z,34.23
2022-08-03T13:56:55.826Z,34.22
2022-08-03T13:59:01.808Z,34.25
2022-08-03T14:01:04.686Z,34.30
2022-08-03T14:03:15.462Z,34.36
2022-08-03T14:05:18.497Z,34.35
2022-08-03T14:07:22.684Z,34.46
2022-08-03T14:09:25.610Z,34.68
2022-08-03T14:12:08.175Z,34.75
2022-08-03T14:13:52.004Z,34.70
2022-08-03T14:15:55.590Z,34.57
2022-08-03T14:17:59.049Z,34.43
2022-08-03T14:20:03.075Z,34.49
2022-08-03T14:22:26.317Z,34.37
2022-08-03T14:24:31.471Z,34.43
2022-08-03T14:26:34.376Z,34.62
2022-08-03T14:28:37.679Z,34.91
2022-08-03T14:30:40.479Z,34.97
2022-08-03T14:32:49.387Z,34.95
2022-08-03T14:34:52.215Z,35.12
2022-08-03T14:36:55.047Z,35.06
2022-08-03T14:39:01.552Z,35.07
2022-08-03T14:41:04.608Z,35.17
2022-08-03T14:43:07.546Z,35.28
2022-08-03T14:45:20.166Z,35.38
2022-08-03T14:47:23.502Z,35.09
2022-08-03T14:50:32.314Z,35.04
2022-08-03T14:51:51.646Z,35.20
2022-08-03T14:53:56.762Z,35.14
2022-08-03T14:56:01.036Z,35.24
2022-08-03T14:58:05.705Z,35.29
2022-08-03T15:00:22.807Z,35.45
2022-08-03T15:02:25.943Z,35.39
2022-08-03T15:04:28.815Z,35.43
2022-08-03T15:06:31.622Z,35.43
2022-08-03T15:08:34.476Z,35.47
2022-08-03T15:10:44.133Z,35.61
2022-08-03T15:12:52.029Z,35.65
2022-08-03T15:14:57.404Z,35.74
2022-08-03T15:17:00.624Z,35.70
2022-08-03T15:19:04.951Z,35.74
2022-08-03T15:21:47.314Z,35.78
2022-08-03T15:23:49.514Z,35.86
2022-08-03T15:26:32.314Z,35.96
2022-08-03T15:28:20.349Z,35.87
2022-08-03T15:30:23.229Z,35.81
2022-08-03T15:32:26.100Z,35.81
2022-08-03T15:34:29.263Z,35.81
2022-08-03T15:36:33.023Z,35.76
2022-08-03T15:38:35.689Z,35.75
2022-08-03T15:40:38.673Z,35.87
2022-08-03T15:42:41.484Z,35.78
2022-08-03T15:44:45.747Z,35.83
2022-08-03T15:46:48.721Z,35.78
2022-08-03T15:48:51.820Z,35.86
2022-08-03T15:50:55.143Z,35.71
2022-08-03T15:52:58.079Z,35.68
2022-08-03T15:55:00.928Z,35.67
2022-08-03T15:57:03.862Z,35.76
2022-08-03T15:59:13.449Z,35.69
2022-08-03T16:01:20.291Z,35.51
2022-08-03T16:03:23.432Z,35.46
2022-08-03T16:05:26.260Z,35.50
2022-08-03T16:08:02.568Z,35.56
2022-08-03T16:10:07.859Z,35.73
2022-08-03T16:12:15.704Z,35.71
2022-08-03T16:14:32.007Z,35.57
2022-08-03T16:16:40.966Z,35.60
2022-08-03T16:18:43.948Z,35.68
2022-08-03T16:20:46.797Z,35.72
2022-08-03T16:22:50.336Z,35.72
2022-08-03T16:24:54.479Z,35.73
2022-08-03T16:26:57.832Z,35.76
2022-08-03T16:29:03.540Z,35.57
2022-08-03T16:31:09.013Z,35.41
2022-08-03T16:33:16.992Z,35.41
2022-08-03T16:35:21.398Z,35.38
2022-08-03T16:37:38.161Z,35.21
2022-08-03T16:39:41.848Z,35.08
2022-08-03T16:41:54.116Z,34.84
2022-08-03T16:44:08.060Z,34.67
2022-08-03T16:46:12.963Z,34.60
2022-08-03T16:48:18.242Z,34.54
2022-08-03T16:50:21.255Z,34.51
2022-08-03T16:52:24.535Z,34.44
2022-08-03T16:54:27.979Z,34.29
2022-08-03T16:56:32.162Z,34.24
2022-08-03T16:58:42.100Z,34.22
2022-08-03T17:00:46.396Z,34.16
2022-08-03T17:02:53.169Z,34.14
2022-08-03T17:04:59.011Z,34.13
2022-08-03T17:07:04.539Z,34.05
2022-08-03T17:09:10.251Z,34.02
2022-08-03T17:11:13.368Z,33.94
2022-08-03T17:13:22.646Z,33.86
2022-08-03T17:15:38.019Z,33.81
2022-08-03T17:18:02.033Z,33.79
2022-08-03T17:20:11.222Z,33.73
2022-08-03T17:22:18.568Z,33.69
2022-08-03T17:24:28.243Z,33.65
2022-08-03T17:26:35.008Z,33.61
2022-08-03T17:28:50.238Z,33.58
2022-08-03T17:31:23.059Z,33.55
2022-08-03T17:33:35.647Z,33.46
2022-08-03T17:35:40.161Z,33.47
2022-08-03T17:37:57.454Z,33.44
2022-08-03T17:40:03.728Z,33.45
2022-08-03T17:46:56.329Z,33.26
2022-08-03T17:49:02.017Z,33.23
2022-08-03T17:51:15.397Z,33.19
2022-08-03T17:53:29.115Z,33.13
2022-08-03T17:55:54.957Z,33.07
2022-08-03T17:58:03.701Z,33.00
2022-08-03T18:00:22.864Z,32.96
2022-08-03T18:02:54.753Z,32.94
2022-08-03T18:05:16.319Z,32.88
2022-08-03T18:07:24.088Z,32.85
2022-08-03T18:10:04.170Z,32.79
2022-08-03T18:12:17.719Z,32.74
2022-08-03T18:14:28.429Z,32.67
2022-08-03T18:16:37.753Z,32.61
2022-08-03T18:18:43.337Z,32.57
2022-08-03T18:20:46.258Z,32.53
2022-08-03T18:22:53.320Z,32.48
2022-08-03T18:24:56.793Z,32.42
2022-08-03T18:27:02.297Z,32.38
2022-08-03T18:29:06.069Z,32.31
2022-08-03T18:31:33.221Z,32.25
2022-08-03T18:34:17.898Z,32.17
2022-08-03T18:36:04.177Z,32.10
2022-08-03T18:38:10.427Z,32.10
2022-08-03T18:40:13.491Z,32.03
2022-08-03T18:42:26.248Z,31.99
2022-08-03T18:44:46.476Z,31.91
2022-08-03T18:47:16.475Z,31.80
2022-08-03T18:49:30.268Z,31.68
2022-08-03T18:51:43.319Z,31.60
2022-08-03T18:54:02.754Z,31.55
2022-08-03T18:56:14.493Z,31.47
2022-08-03T18:58:26.355Z,31.46
2022-08-03T19:00:54.317Z,31.41
2022-08-03T19:02:58.825Z,31.29
2022-08-03T19:05:07.192Z,31.22
2022-08-03T19:07:11.152Z,31.17
2022-08-03T19:09:23.849Z,31.15
2022-08-03T19:12:14.215Z,31.13
2022-08-03T19:14:02.100Z,31.06
2022-08-03T19:16:08.744Z,31.00
2022-08-03T19:18:16.374Z,30.91
2022-08-03T19:20:21.701Z,30.83
2022-08-03T19:22:27.145Z,30.76
2022-08-03T19:24:32.044Z,30.71
2022-08-03T19:26:37.863Z,30.65
2022-08-03T19:28:42.543Z,30.59
2022-08-03T19:30:53.731Z,30.57
2022-08-03T19:32:56.999Z,30.53
2022-08-03T19:35:01.641Z,30.50
2022-08-03T19:37:04.945Z,30.45
2022-08-03T19:39:09.938Z,30.42
2022-08-03T19:41:15.893Z,30.39
2022-08-03T19:43:23.391Z,30.37
2022-08-03T19:46:05.473Z,30.32
2022-08-03T19:47:54.742Z,30.28
2022-08-03T19:50:06.201Z,30.26
2022-08-03T19:57:16.032Z,29.91
2022-08-03T19:59:20.888Z,29.99
2022-08-03T20:01:24.137Z,29.96
2022-08-03T20:03:42.946Z,29.93
2022-08-03T20:05:52.309Z,29.89
2022-08-03T20:08:00.589Z,29.85
2022-08-03T20:10:06.449Z,29.81
2022-08-03T20:12:11.946Z,29.73
2022-08-03T20:14:20.680Z,29.67
2022-08-03T20:16:29.386Z,29.63
2022-08-03T20:18:37.285Z,29.59
2022-08-03T20:20:42.094Z,29.54
2022-08-03T20:22:48.028Z,29.36
2022-08-03T20:24:54.551Z,29.35
2022-08-03T20:27:00.214Z,29.38
2022-08-03T20:29:10.081Z,29.42
2022-08-03T20:31:13.497Z,29.39
2022-08-03T20:33:18.729Z,29.37
2022-08-03T20:35:22.291Z,29.39
2022-08-03T20:37:25.091Z,29.39
2022-08-03T20:39:28.127Z,29.36
2022-08-03T20:41:33.979Z,29.34
2022-08-03T20:43:36.877Z,29.35
2022-08-03T20:45:58.975Z,29.33
2022-08-03T20:48:05.792Z,29.21
2022-08-03T20:50:12.001Z,29.16
2022-08-03T20:52:18.916Z,29.09
2022-08-03T20:54:29.965Z,29.05
2022-08-03T20:56:36.176Z,29.00
2022-08-03T20:58:41.542Z,28.99
2022-08-03T21:00:47.911Z,29.08
2022-08-03T21:02:54.843Z,29.07
2022-08-03T21:04:57.817Z,29.06
2022-08-03T21:07:16.421Z,29.04
2022-08-03T21:09:25.053Z,28.99
2022-08-03T21:11:45.670Z,28.96
2022-08-03T21:12:54.738Z,33.38
2022-08-03T21:13:03.180Z,30.21
2022-08-03T21:13:03.182Z,30.16
2022-08-03T21:13:04.654Z,33.32
2022-08-03T21:13:56.166Z,28.97
2022-08-03T21:16:13.633Z,28.90
2022-08-03T21:18:18.924Z,28.87
2022-08-03T21:20:26.662Z,28.90
2022-08-03T21:22:33.399Z,28.92
2022-08-03T21:24:41.453Z,28.88
2022-08-03T21:26:48.587Z,28.84
2022-08-03T21:28:53.525Z,28.75
2022-08-03T21:30:59.561Z,28.68
2022-08-03T21:33:06.500Z,28.59
2022-08-03T21:35:10.585Z,28.54
2022-08-03T21:37:14.410Z,28.39
2022-08-03T21:39:18.377Z,28.36
2022-08-03T21:41:21.422Z,28.48
2022-08-03T21:43:24.242Z,28.52
2022-08-03T21:45:27.478Z,28.51
2022-08-03T21:47:30.622Z,28.49
2022-08-03T21:49:51.814Z,28.49
2022-08-03T21:52:05.048Z,28.45
2022-08-03T21:54:08.153Z,28.40
2022-08-03T21:56:13.394Z,28.37
2022-08-03T21:58:18.319Z,28.32
2022-08-03T22:00:23.898Z,28.24
2022-08-03T22:02:31.432Z,28.20
2022-08-03T22:04:53.531Z,28.27
2022-08-03T22:07:00.021Z,28.25
2022-08-03T22:09:02.948Z,28.24
2022-08-03T22:11:06.349Z,28.23
2022-08-03T22:13:09.203Z,28.23
2022-08-03T22:15:13.644Z,28.23
2022-08-03T22:17:54.036Z,28.19
2022-08-03T22:19:41.090Z,28.18
2022-08-03T22:21:48.076Z,28.16
2022-08-03T22:23:53.943Z,28.10
2022-08-03T22:25:57.910Z,28.12
2022-08-03T22:28:04.196Z,28.08
2022-08-03T22:30:12.476Z,28.09
2022-08-03T22:32:15.282Z,28.06
2022-08-03T22:34:18.266Z,28.03
2022-08-03T22:36:31.199Z,28.02
2022-08-03T22:38:34.613Z,27.99
2022-08-03T22:40:38.654Z,27.96
2022-08-03T22:42:42.787Z,27.91
2022-08-03T22:44:46.075Z,27.75
2022-08-03T22:46:49.218Z,27.76
2022-08-03T22:48:52.882Z,27.75
2022-08-03T22:50:57.677Z,27.69
2022-08-03T22:53:02.479Z,27.71
2022-08-03T22:55:07.879Z,27.68
2022-08-03T22:57:11.664Z,27.67
2022-08-03T22:59:40.633Z,27.66
2022-08-03T23:01:39.580Z,27.64
2022-08-03T23:03:59.356Z,27.66
2022-08-03T23:06:04.941Z,27.59
2022-08-03T23:08:10.652Z,27.50
2022-08-03T23:10:15.294Z,27.54
2022-08-03T23:12:20.496Z,27.55
2022-08-03T23:14:24.110Z,27.54
2022-08-03T23:16:29.554Z,27.51
2022-08-03T23:18:37.463Z,27.50
2022-08-03T23:20:40.713Z,27.46
2022-08-03T23:22:48.732Z,27.47
2022-08-03T23:24:57.502Z,27.37
2022-08-03T23:27:03.083Z,27.27
2022-08-03T23:29:05.881Z,27.22
2022-08-03T23:31:09.054Z,27.15
2022-08-03T23:33:13.915Z,27.16
2022-08-03T23:36:18.755Z,27.15
2022-08-03T23:38:04.726Z,27.01
2022-08-03T23:40:25.923Z,27.08
2022-08-03T23:42:29.183Z,27.09
2022-08-03T23:44:34.105Z,27.12
2022-08-03T23:46:38.235Z,27.11
2022-08-03T23:48:40.873Z,26.99
2022-08-03T23:50:46.810Z,27.00
2022-08-03T23:52:57.639Z,27.03
2022-08-03T23:55:17.060Z,27.00
2022-08-03T23:57:30.222Z,26.95
2022-08-03T23:59:41.603Z,26.86
